Time;durP1;ratioP1;P1;durP2;ratioP2;P2;SDS_P1;SDS_P2;PMS_P1;PMS_P2;Temp;Humidity;BMP_temperature;BMP_pressure;BME280_temperature;BME280_humidity;BME280_pressure;Samples;Min_cycle;Max_cycle;Signal;HPM_P1;HPM_P2
2022/08/20 00:00:13;;;;;;;3.00;1.50;;;24.10;55.30;;;;;;5035106;28;20077;-53
2022/08/20 00:02:42;;;;;;;3.03;2.25;;;24.00;55.30;;;;;;5039429;28;20051;-51
2022/08/20 00:05:11;;;;;;;7.38;2.17;;;24.00;55.70;;;;;;5038181;28;20063;-49
2022/08/20 00:07:39;;;;;;;3.28;1.98;;;24.00;56.00;;;;;;5044314;28;20052;-50
2022/08/20 00:10:08;;;;;;;1.95;1.60;;;24.00;56.00;;;;;;5032757;28;20050;-51
2022/08/20 00:12:36;;;;;;;3.35;1.65;;;23.90;56.20;;;;;;5038376;28;20049;-51
2022/08/20 00:15:06;;;;;;;2.33;1.67;;;23.80;56.40;;;;;;5043383;28;20048;-54
2022/08/20 00:17:35;;;;;;;2.20;1.40;;;23.80;56.70;;;;;;5043814;28;20059;-48
2022/08/20 00:20:03;;;;;;;1.23;1.13;;;23.70;56.50;;;;;;5034232;28;20055;-50
2022/08/20 00:22:32;;;;;;;1.70;1.30;;;23.70;56.60;;;;;;5041810;28;20056;-53
2022/08/20 00:24:59;;;;;;;1.90;1.40;;;23.70;56.80;;;;;;5039626;28;20057;-49
2022/08/20 00:27:26;;;;;;;2.33;1.70;;;23.60;56.70;;;;;;5043757;28;20061;-48
2022/08/20 00:29:54;;;;;;;2.00;1.40;;;23.60;56.80;;;;;;5034746;28;20057;-48
2022/08/20 00:32:21;;;;;;;1.77;1.20;;;23.60;56.70;;;;;;5039037;28;20049;-48
2022/08/20 00:34:48;;;;;;;1.95;1.75;;;23.60;56.90;;;;;;5041263;28;20049;-49
2022/08/20 00:37:15;;;;;;;1.85;1.60;;;23.60;57.00;;;;;;5043603;28;20489;-46
2022/08/20 00:39:44;;;;;;;2.95;1.40;;;23.60;57.00;;;;;;5034689;28;20060;-48
2022/08/20 00:42:11;;;;;;;1.85;1.50;;;23.60;57.10;;;;;;5039705;28;20049;-48
2022/08/20 00:44:45;;;;;;;1.98;1.70;;;23.60;57.10;;;;;;5038634;28;20065;-50
2022/08/20 00:47:12;;;;;;;1.77;1.65;;;23.60;57.30;;;;;;5037655;28;20045;-50
2022/08/20 00:49:40;;;;;;;2.10;1.63;;;23.50;57.10;;;;;;5038726;28;20048;-50
2022/08/20 00:52:11;;;;;;;2.92;2.00;;;23.50;57.20;;;;;;5037573;28;20053;-54
2022/08/20 00:54:43;;;;;;;2.60;1.85;;;23.50;57.30;;;;;;5042702;28;20072;-50
2022/08/20 00:57:21;;;;;;;2.55;1.75;;;23.50;57.40;;;;;;5040599;28;20492;-50
2022/08/20 00:59:50;;;;;;;2.53;1.90;;;23.50;57.30;;;;;;5033417;28;20068;-49
2022/08/20 01:02:19;;;;;;;2.90;1.75;;;23.50;57.70;;;;;;5039271;28;20049;-50
2022/08/20 01:04:49;;;;;;;2.60;2.08;;;23.50;57.20;;;;;;5041028;28;20045;-48
2022/08/20 01:07:19;;;;;;;3.55;2.10;;;23.50;57.40;;;;;;5042957;28;20485;-49
2022/08/20 01:09:48;;;;;;;3.47;2.20;;;23.50;57.40;;;;;;5037121;28;20049;-50
2022/08/20 01:12:17;;;;;;;4.90;2.58;;;23.50;57.60;;;;;;5039488;28;20057;-51
2022/08/20 01:14:46;;;;;;;3.50;2.47;;;23.50;57.60;;;;;;5040427;28;20056;-49
2022/08/20 01:17:17;;;;;;;4.43;2.97;;;23.50;57.70;;;;;;5041284;28;20076;-48
2022/08/20 01:19:49;;;;;;;5.40;2.40;;;23.50;58.10;;;;;;5031183;28;20064;-54
2022/08/20 01:25:16;;;;;;;4.75;2.30;;;23.40;58.40;;;;;;5046554;28;20063;-49
2022/08/20 01:27:45;;;;;;;4.00;2.88;;;23.40;58.30;;;;;;5042429;28;20064;-48
2022/08/20 01:30:13;;;;;;;3.03;2.42;;;23.40;58.70;;;;;;5033151;28;20053;-46
2022/08/20 01:32:40;;;;;;;3.28;2.92;;;23.40;58.60;;;;;;5040939;28;20224;-50
2022/08/20 01:35:09;;;;;;;4.47;3.30;;;23.40;58.80;;;;;;5042019;28;20057;-50
2022/08/20 01:37:36;;;;;;;3.88;3.28;;;23.30;59.00;;;;;;5039841;28;20412;-47
2022/08/20 01:40:07;;;;;;;6.43;2.70;;;23.30;58.70;;;;;;5024967;28;20056;-47
2022/08/20 01:42:41;;;;;;;3.88;2.90;;;23.30;58.70;;;;;;5038691;28;20060;-49
2022/08/20 01:45:09;;;;;;;2.92;2.63;;;23.30;58.80;;;;;;5040178;28;20057;-48
2022/08/20 01:47:37;;;;;;;4.63;2.30;;;23.20;58.60;;;;;;5038427;28;20045;-50
2022/08/20 01:50:15;;;;;;;5.43;2.67;;;23.20;58.50;;;;;;5030091;28;20054;-48
2022/08/20 01:52:50;;;;;;;3.20;2.63;;;23.20;58.60;;;;;;5037540;28;20050;-51
2022/08/20 01:55:18;;;;;;;4.80;3.05;;;23.20;58.70;;;;;;5041296;28;20057;-49
2022/08/20 01:57:47;;;;;;;4.70;2.42;;;23.10;58.50;;;;;;5038370;28;20431;-50
2022/08/20 02:00:18;;;;;;;3.50;2.63;;;23.10;58.50;;;;;;5029320;28;20052;-50
2022/08/20 02:02:46;;;;;;;4.47;2.90;;;23.10;58.60;;;;;;5040248;28;20080;-53
2022/08/20 02:05:13;;;;;;;4.40;2.67;;;23.00;58.60;;;;;;5040780;28;20071;-51
2022/08/20 02:07:40;;;;;;;2.90;2.40;;;23.00;58.60;;;;;;5038395;28;20057;-51
2022/08/20 02:10:10;;;;;;;5.90;2.60;;;23.00;58.70;;;;;;5029453;28;20510;-50
2022/08/20 02:12:38;;;;;;;4.47;2.42;;;22.90;58.80;;;;;;5038025;28;20416;-52
2022/08/20 02:15:09;;;;;;;4.90;2.65;;;23.00;58.80;;;;;;5038829;28;20053;-49
2022/08/20 02:17:38;;;;;;;2.90;2.17;;;22.90;58.80;;;;;;5042655;28;20061;-49
2022/08/20 02:20:10;;;;;;;3.28;2.30;;;23.00;58.80;;;;;;5029170;28;20057;-49
2022/08/20 02:22:42;;;;;;;3.30;2.40;;;22.90;58.90;;;;;;5042373;28;20610;-46
2022/08/20 02:25:11;;;;;;;3.47;2.10;;;22.90;58.90;;;;;;5040026;28;20048;-48
2022/08/20 02:27:41;;;;;;;3.08;2.83;;;22.90;58.90;;;;;;5039135;28;20068;-52
2022/08/20 02:30:14;;;;;;;4.20;2.10;;;22.90;58.90;;;;;;5030323;28;20053;-54
2022/08/20 02:32:43;;;;;;;4.40;2.40;;;22.90;58.90;;;;;;5041954;28;20049;-54
2022/08/20 02:35:12;;;;;;;5.82;2.90;;;22.90;58.80;;;;;;5039659;28;20505;-47
2022/08/20 02:37:40;;;;;;;3.05;2.60;;;22.90;58.90;;;;;;5040017;28;20057;-51
2022/08/20 02:40:10;;;;;;;4.75;2.28;;;22.80;59.00;;;;;;5025903;28;20057;-48
2022/08/20 02:42:41;;;;;;;3.55;2.00;;;22.80;59.00;;;;;;5035342;28;20049;-49
2022/08/20 02:45:10;;;;;;;4.90;2.40;;;22.80;59.10;;;;;;5039372;28;20451;-46
2022/08/20 02:47:38;;;;;;;3.55;2.20;;;22.80;59.10;;;;;;5041329;28;20053;-47
2022/08/20 02:50:10;;;;;;;3.55;2.50;;;22.70;59.10;;;;;;5030407;28;20060;-53
2022/08/20 02:52:38;;;;;;;4.70;2.53;;;22.70;59.20;;;;;;5039035;28;20045;-51
2022/08/20 02:55:06;;;;;;;4.05;2.38;;;22.70;59.10;;;;;;5041376;28;20421;-52
2022/08/20 02:57:33;;;;;;;3.85;2.53;;;22.60;59.10;;;;;;5040325;28;20057;-51
2022/08/20 03:00:02;;;;;;;4.55;2.33;;;22.60;59.10;;;;;;5030256;28;20413;-47
2022/08/20 03:02:30;;;;;;;4.63;2.38;;;22.60;59.10;;;;;;5033878;28;20136;-50
2022/08/20 03:04:58;;;;;;;2.58;2.33;;;22.60;59.10;;;;;;5029769;28;20516;-47
2022/08/20 03:07:27;;;;;;;6.72;4.28;;;22.60;59.10;;;;;;5032952;28;20064;-48
2022/08/20 03:09:55;;;;;;;8.95;3.78;;;22.60;59.20;;;;;;5036637;28;20057;-48
2022/08/20 03:12:22;;;;;;;4.45;3.35;;;22.50;59.20;;;;;;5038017;28;20056;-51
2022/08/20 03:14:49;;;;;;;4.53;2.53;;;22.50;59.30;;;;;;5038548;28;20053;-50
2022/08/20 03:17:16;;;;;;;2.88;2.47;;;22.50;59.30;;;;;;5036306;28;20440;-50
2022/08/20 03:19:43;;;;;;;3.22;2.67;;;22.40;59.40;;;;;;5033364;28;20064;-47
2022/08/20 03:22:11;;;;;;;4.28;2.70;;;22.40;59.50;;;;;;5042451;28;20056;-49
2022/08/20 03:24:39;;;;;;;5.93;3.17;;;22.40;59.50;;;;;;5035377;28;20445;-47
2022/08/20 03:27:06;;;;;;;3.40;2.75;;;22.40;59.60;;;;;;5037910;28;20056;-47
2022/08/20 03:29:34;;;;;;;5.03;2.80;;;22.40;59.60;;;;;;5042414;28;20053;-49
2022/08/20 03:32:01;;;;;;;5.00;3.15;;;22.40;59.60;;;;;;5039434;28;20064;-52
2022/08/20 03:34:28;;;;;;;4.30;3.15;;;22.40;59.60;;;;;;5044171;28;20049;-48
2022/08/20 03:36:55;;;;;;;4.43;3.03;;;22.40;59.60;;;;;;5039797;28;20436;-49
2022/08/20 03:39:22;;;;;;;5.88;3.78;;;22.40;59.60;;;;;;5044182;28;20052;-47
2022/08/20 03:41:51;;;;;;;4.07;3.58;;;22.40;59.60;;;;;;5040151;28;20052;-47
2022/08/20 03:44:18;;;;;;;4.20;3.35;;;22.40;59.50;;;;;;5042884;28;20402;-49
2022/08/20 03:46:46;;;;;;;4.22;3.55;;;22.30;59.50;;;;;;5043051;28;20076;-56
2022/08/20 03:49:13;;;;;;;5.43;3.60;;;22.40;59.50;;;;;;5041035;28;20520;-55
2022/08/20 03:51:40;;;;;;;5.90;4.13;;;22.40;59.50;;;;;;5040200;28;20500;-51
2022/08/20 03:54:07;;;;;;;4.43;3.65;;;22.30;59.50;;;;;;5043472;28;20049;-53
2022/08/20 03:56:35;;;;;;;3.72;3.30;;;22.40;59.60;;;;;;5041702;28;20060;-55
2022/08/20 03:59:04;;;;;;;5.68;3.75;;;22.40;59.60;;;;;;5040965;28;20057;-49
2022/08/20 04:01:31;;;;;;;5.43;4.00;;;22.40;59.70;;;;;;5037474;28;20056;-49
2022/08/20 04:03:58;;;;;;;4.78;3.75;;;22.30;59.60;;;;;;5043883;28;20057;-47
2022/08/20 04:06:28;;;;;;;3.78;3.35;;;22.40;59.70;;;;;;5037977;28;20076;-50
2022/08/20 04:08:55;;;;;;;4.88;3.83;;;22.40;59.70;;;;;;5044325;28;20437;-48
2022/08/20 04:11:23;;;;;;;6.18;4.10;;;22.40;59.60;;;;;;5040221;28;20424;-46
2022/08/20 04:13:50;;;;;;;3.75;3.05;;;22.40;59.70;;;;;;5040925;28;20484;-47
2022/08/20 04:16:19;;;;;;;2.88;2.65;;;22.40;59.80;;;;;;5036285;28;20057;-53
2022/08/20 04:18:48;;;;;;;3.53;2.45;;;22.40;59.90;;;;;;5035845;28;20504;-46
2022/08/20 04:21:15;;;;;;;2.95;2.40;;;22.40;59.70;;;;;;5038766;28;20404;-52
2022/08/20 04:23:42;;;;;;;3.80;3.03;;;22.40;59.70;;;;;;5039798;28;20060;-50
2022/08/20 04:26:09;;;;;;;5.65;2.70;;;22.40;59.70;;;;;;5038019;28;20049;-51
2022/08/20 04:28:36;;;;;;;3.05;2.67;;;22.40;59.60;;;;;;5032046;28;20067;-51
2022/08/20 04:31:04;;;;;;;3.55;2.90;;;22.50;59.70;;;;;;5032829;28;20060;-49
2022/08/20 04:33:32;;;;;;;3.47;3.17;;;22.50;59.70;;;;;;5038554;28;20052;-50
2022/08/20 04:36:01;;;;;;;4.75;3.40;;;22.40;59.70;;;;;;5016354;28;21742;-46
2022/08/20 04:38:30;;;;;;;4.03;3.63;;;22.40;59.70;;;;;;5035920;28;20059;-50
2022/08/20 04:41:00;;;;;;;4.35;3.13;;;22.50;59.80;;;;;;5032564;28;20050;-48
2022/08/20 04:43:29;;;;;;;5.18;3.35;;;22.40;59.70;;;;;;5039964;28;20516;-47
2022/08/20 04:46:00;;;;;;;5.25;3.35;;;22.50;59.80;;;;;;5030869;28;20055;-52
2022/08/20 04:48:28;;;;;;;4.05;2.90;;;22.40;59.80;;;;;;5037200;28;20064;-52
2022/08/20 04:50:57;;;;;;;4.32;3.35;;;22.50;59.80;;;;;;5032824;28;20067;-50
2022/08/20 04:53:27;;;;;;;4.63;3.13;;;22.50;59.90;;;;;;5038784;28;20053;-50
2022/08/20 04:55:55;;;;;;;5.47;3.72;;;22.50;59.90;;;;;;5033971;28;20053;-50
2022/08/20 04:58:26;;;;;;;6.07;4.72;;;22.50;60.00;;;;;;4973053;28;20444;-53
2022/08/20 05:00:55;;;;;;;8.80;6.10;;;22.50;60.10;;;;;;5003125;28;20594;-54
2022/08/20 05:03:24;;;;;;;6.43;5.60;;;22.50;60.10;;;;;;5019306;28;20057;-52
2022/08/20 05:05:51;;;;;;;7.35;5.72;;;22.50;60.20;;;;;;5020920;28;20053;-53
2022/08/20 05:08:21;;;;;;;6.88;5.18;;;22.40;60.20;;;;;;5018000;28;20409;-51
2022/08/20 05:10:49;;;;;;;6.32;4.72;;;22.40;60.30;;;;;;5011565;28;20425;-50
2022/08/20 05:13:17;;;;;;;6.53;5.20;;;22.50;60.40;;;;;;5012589;28;20061;-49
2022/08/20 05:15:47;;;;;;;11.10;6.70;;;22.40;60.40;;;;;;5017607;28;20053;-50
2022/08/20 05:18:18;;;;;;;7.57;5.78;;;22.40;60.60;;;;;;5015865;28;20057;-51
2022/08/20 05:20:46;;;;;;;7.68;6.03;;;22.40;60.80;;;;;;5006951;28;20060;-53
2022/08/20 05:23:15;;;;;;;7.10;5.38;;;22.50;60.80;;;;;;5020467;28;20496;-54
2022/08/20 05:25:47;;;;;;;7.38;5.85;;;22.40;60.90;;;;;;5022181;28;20061;-47
2022/08/20 05:28:19;;;;;;;7.13;5.68;;;22.40;60.90;;;;;;5020953;28;20045;-53
2022/08/20 05:30:48;;;;;;;6.90;5.35;;;22.40;61.10;;;;;;5008019;28;20056;-49
2022/08/20 05:33:18;;;;;;;7.35;5.07;;;22.40;61.00;;;;;;5017045;28;20062;-47
2022/08/20 05:35:48;;;;;;;6.60;4.40;;;22.40;61.10;;;;;;5008228;28;20517;-49
2022/08/20 05:38:18;;;;;;;6.72;4.70;;;22.50;61.20;;;;;;5014790;28;20413;-49
2022/08/20 05:40:47;;;;;;;7.43;4.82;;;22.50;61.20;;;;;;4998912;28;20409;-50
2022/08/20 05:43:15;;;;;;;5.65;5.05;;;22.50;61.20;;;;;;5014067;28;20273;-52
2022/08/20 05:45:46;;;;;;;9.13;5.22;;;22.50;61.20;;;;;;5014927;28;20052;-51
2022/08/20 05:48:16;;;;;;;9.48;5.18;;;22.50;61.40;;;;;;5012813;28;20057;-50
2022/08/20 05:50:47;;;;;;;5.25;4.72;;;22.50;61.30;;;;;;5013071;28;20049;-52
2022/08/20 05:53:15;;;;;;;6.68;5.88;;;22.50;61.30;;;;;;5015315;28;20375;-52
2022/08/20 05:55:44;;;;;;;7.50;5.53;;;22.50;61.20;;;;;;5013304;28;20528;-53
2022/08/20 05:58:18;;;;;;;7.32;5.18;;;22.50;61.30;;;;;;5011466;28;20049;-52
2022/08/20 06:00:45;;;;;;;;;;;22.50;61.60;;;;;;5003215;28;20057;-52
2022/08/20 06:05:57;;;;;;;11.60;8.52;;;22.50;61.10;;;;;;5020539;28;20045;-49
2022/08/20 06:08:24;;;;;;;11.60;8.73;;;22.50;61.50;;;;;;5016509;28;20053;-50
2022/08/20 06:10:51;;;;;;;7.28;6.57;;;22.50;62.30;;;;;;5014251;28;20563;-53
2022/08/20 06:13:20;;;;;;;8.70;7.07;;;22.50;62.20;;;;;;5015378;28;20053;-54
2022/08/20 06:15:47;;;;;;;13.02;10.93;;;22.40;62.30;;;;;;5007925;28;20050;-50
2022/08/20 06:18:15;;;;;;;78.25;42.30;;;22.40;62.80;;;;;;5002691;28;20057;-52
2022/08/20 06:20:42;;;;;;;18.33;12.95;;;22.40;63.00;;;;;;5011057;28;20481;-49
2022/08/20 06:23:09;;;;;;;16.25;11.50;;;22.40;63.70;;;;;;5012369;28;20061;-52
2022/08/20 06:25:37;;;;;;;14.75;12.55;;;22.40;64.10;;;;;;5010917;28;20045;-52
2022/08/20 06:28:05;;;;;;;19.52;13.52;;;22.30;64.30;;;;;;5015616;28;20061;-51
2022/08/20 06:30:34;;;;;;;18.05;13.88;;;22.30;64.80;;;;;;5011397;28;20053;-52
2022/08/20 06:33:01;;;;;;;17.65;13.18;;;22.20;64.70;;;;;;5010154;28;20053;-50
2022/08/20 06:35:28;;;;;;;16.35;13.18;;;22.20;64.40;;;;;;5018880;28;20520;-54
2022/08/20 06:37:59;;;;;;;15.70;12.25;;;22.20;64.70;;;;;;5018042;28;20049;-48
2022/08/20 06:40:28;;;;;;;17.00;13.00;;;22.10;64.70;;;;;;5009645;28;20058;-55
2022/08/20 06:42:56;;;;;;;17.80;13.90;;;22.10;64.70;;;;;;5002379;28;20089;-49
2022/08/20 06:45:26;;;;;;;16.13;13.25;;;22.00;64.50;;;;;;5014920;28;20050;-55
2022/08/20 06:47:57;;;;;;;20.80;13.30;;;22.00;64.60;;;;;;5017359;28;21059;-55
2022/08/20 06:50:28;;;;;;;15.20;12.45;;;21.90;64.60;;;;;;5010810;28;20049;-52
2022/08/20 06:52:56;;;;;;;17.08;13.50;;;21.90;64.80;;;;;;5012761;28;20054;-58
2022/08/20 06:55:23;;;;;;;14.82;11.65;;;21.90;64.40;;;;;;5019570;28;20049;-52
2022/08/20 06:57:58;;;;;;;14.77;12.52;;;21.90;64.00;;;;;;5013615;28;20066;-51
2022/08/20 07:00:26;;;;;;;21.65;14.15;;;21.80;63.50;;;;;;5002320;28;20049;-55
2022/08/20 07:02:56;;;;;;;16.38;13.25;;;21.80;63.00;;;;;;5008555;28;20053;-51
2022/08/20 07:05:23;;;;;;;18.38;14.55;;;21.70;62.80;;;;;;5018973;28;20045;-54
2022/08/20 07:07:50;;;;;;;20.17;13.73;;;21.70;62.70;;;;;;5023272;28;20494;-51
2022/08/20 07:10:20;;;;;;;17.95;14.48;;;21.70;62.70;;;;;;5013472;28;20045;-51
2022/08/20 07:12:49;;;;;;;19.88;14.95;;;21.70;62.50;;;;;;5021865;28;20050;-52
2022/08/20 07:15:18;;;;;;;18.45;14.50;;;21.60;62.20;;;;;;5008302;28;20504;-56
2022/08/20 07:17:50;;;;;;;21.75;17.02;;;21.60;62.40;;;;;;5019617;28;20053;-50
2022/08/20 07:20:19;;;;;;;18.17;15.27;;;21.60;62.60;;;;;;5013114;28;20054;-57
2022/08/20 07:22:47;;;;;;;18.45;15.43;;;21.60;63.00;;;;;;5019505;28;20049;-48
2022/08/20 07:25:17;;;;;;;19.10;14.90;;;21.60;63.40;;;;;;5016176;28;20042;-53
2022/08/20 07:27:45;;;;;;;21.90;15.27;;;21.50;63.30;;;;;;5017876;28;20057;-48
2022/08/20 07:33:05;;;;;;;18.45;15.55;;;21.50;63.40;;;;;;5022859;28;20068;-52
2022/08/20 07:35:34;;;;;;;21.58;15.57;;;21.50;63.20;;;;;;5017522;28;20052;-51
2022/08/20 07:38:01;;;;;;;19.73;16.02;;;21.50;63.90;;;;;;5018030;28;20394;-51
2022/08/20 07:40:30;;;;;;;23.17;15.65;;;21.50;64.60;;;;;;5011338;28;20053;-52
2022/08/20 07:43:01;;;;;;;19.23;16.05;;;21.50;64.20;;;;;;5015252;28;20562;-52
2022/08/20 07:45:29;;;;;;;22.00;15.80;;;21.50;64.60;;;;;;5017195;28;20061;-50
2022/08/20 07:48:06;;;;;;;18.65;15.80;;;21.50;64.10;;;;;;5020118;28;20516;-52
2022/08/20 07:50:35;;;;;;;17.90;13.93;;;21.50;64.80;;;;;;5016526;28;20485;-52
2022/08/20 07:53:02;;;;;;;23.67;17.52;;;21.50;65.10;;;;;;5018144;28;20401;-52
2022/08/20 07:55:30;;;;;;;19.30;13.15;;;21.50;65.00;;;;;;5011510;28;20065;-50
2022/08/20 07:58:01;;;;;;;18.75;14.35;;;21.60;65.00;;;;;;5010634;28;20057;-52
2022/08/20 08:00:28;;;;;;;17.70;13.70;;;21.60;64.60;;;;;;5005837;28;20069;-56
2022/08/20 08:02:56;;;;;;;20.15;15.13;;;21.70;64.10;;;;;;5011881;28;20049;-55
2022/08/20 08:05:23;;;;;;;19.50;15.45;;;21.70;63.30;;;;;;5012222;28;20517;-55
2022/08/20 08:07:52;;;;;;;16.23;13.88;;;21.70;62.90;;;;;;5018940;28;20056;-47
2022/08/20 08:10:22;;;;;;;22.17;14.23;;;21.70;63.10;;;;;;5015271;28;20065;-53
2022/08/20 08:12:53;;;;;;;16.42;12.88;;;21.70;62.60;;;;;;5019767;28;20674;-50
2022/08/20 08:15:24;;;;;;;18.08;13.85;;;21.70;63.10;;;;;;5010969;28;20068;-57
2022/08/20 08:17:54;;;;;;;23.02;14.88;;;21.70;63.40;;;;;;5020732;28;20049;-51
2022/08/20 08:20:22;;;;;;;20.08;14.10;;;21.70;63.40;;;;;;5013061;28;20049;-49
2022/08/20 08:22:50;;;;;;;16.10;12.75;;;21.70;62.80;;;;;;5021974;28;20049;-53
2022/08/20 08:25:18;;;;;;;22.42;13.38;;;21.70;62.70;;;;;;5015555;28;20053;-48
2022/08/20 08:27:47;;;;;;;16.77;13.75;;;21.80;62.50;;;;;;5011027;28;20068;-51
2022/08/20 08:30:16;;;;;;;17.20;13.48;;;21.80;62.50;;;;;;5010768;28;20060;-48
2022/08/20 08:35:25;;;;;;;17.73;13.95;;;21.90;62.40;;;;;;5010599;28;20061;-55
2022/08/20 08:37:52;;;;;;;19.15;13.15;;;21.90;61.50;;;;;;5009633;28;20050;-54
2022/08/20 08:40:22;;;;;;;16.25;9.98;;;21.90;61.60;;;;;;5011282;28;20058;-50
2022/08/20 08:42:56;;;;;;;13.60;10.30;;;22.00;62.10;;;;;;5020995;28;20505;-52
2022/08/20 08:45:27;;;;;;;13.30;11.80;;;22.10;62.40;;;;;;5016435;28;20410;-50
2022/08/20 08:47:57;;;;;;;21.65;14.98;;;22.10;61.70;;;;;;5014735;28;20061;-53
2022/08/20 08:50:29;;;;;;;22.25;14.95;;;22.20;60.70;;;;;;5014129;28;20050;-49
2022/08/20 08:52:59;;;;;;;15.23;12.38;;;22.30;61.70;;;;;;5016388;28;20053;-47
2022/08/20 08:55:29;;;;;;;14.50;11.50;;;22.30;60.10;;;;;;5016007;28;20065;-53
2022/08/20 08:58:00;;;;;;;11.70;10.50;;;22.40;59.90;;;;;;5013072;28;20058;-48
2022/08/20 09:00:28;;;;;;;13.70;10.18;;;22.40;59.60;;;;;;5003799;28;20052;-52
2022/08/20 09:03:01;;;;;;;12.27;9.93;;;22.40;59.10;;;;;;5010263;28;20057;-48
2022/08/20 09:05:35;;;;;;;14.52;9.98;;;22.50;59.70;;;;;;5015444;28;20072;-53
2022/08/20 09:08:05;;;;;;;13.07;9.63;;;22.50;59.10;;;;;;5020996;28;20060;-50
2022/08/20 09:10:34;;;;;;;15.18;11.63;;;22.60;59.10;;;;;;5015523;28;20053;-53
2022/08/20 09:13:02;;;;;;;14.43;9.60;;;22.60;58.40;;;;;;5020768;28;20064;-49
2022/08/20 09:15:29;;;;;;;10.63;8.88;;;22.70;58.10;;;;;;5013785;28;20066;-50
2022/08/20 09:17:57;;;;;;;12.52;11.18;;;22.70;57.50;;;;;;5001758;28;20077;-55
2022/08/20 09:20:24;;;;;;;12.25;10.77;;;22.70;57.40;;;;;;5010851;28;20072;-53
2022/08/20 09:22:51;;;;;;;14.70;11.38;;;22.80;57.00;;;;;;5006225;28;20053;-56
2022/08/20 09:25:19;;;;;;;10.45;9.23;;;22.80;57.10;;;;;;5015587;28;20408;-50
2022/08/20 09:27:48;;;;;;;11.43;8.27;;;22.80;57.20;;;;;;5018322;28;20415;-49
2022/08/20 09:30:16;;;;;;;13.63;11.43;;;22.90;57.30;;;;;;5017763;28;20050;-60
2022/08/20 09:32:44;;;;;;;13.25;11.52;;;22.90;56.60;;;;;;5020491;28;20053;-48
2022/08/20 09:35:12;;;;;;;13.95;10.52;;;22.90;56.40;;;;;;5019974;28;20061;-52
2022/08/20 09:37:39;;;;;;;12.00;10.60;;;23.00;56.70;;;;;;5018811;28;20053;-47
2022/08/20 09:40:08;;;;;;;13.75;10.70;;;23.00;56.00;;;;;;5015416;28;20065;-49
2022/08/20 09:42:38;;;;;;;10.40;9.15;;;23.00;55.30;;;;;;5016274;28;20064;-51
2022/08/20 09:45:08;;;;;;;12.63;9.88;;;23.00;55.60;;;;;;5021942;28;20120;-55
2022/08/20 09:47:35;;;;;;;11.25;10.02;;;23.00;56.30;;;;;;5021440;28;20060;-55
2022/08/20 09:50:02;;;;;;;15.80;11.63;;;23.10;55.90;;;;;;5013320;28;20050;-52
2022/08/20 09:52:32;;;;;;;10.55;9.10;;;23.10;56.10;;;;;;5015720;28;20050;-57
2022/08/20 09:55:04;;;;;;;14.15;9.98;;;23.20;56.30;;;;;;5011805;28;20065;-50
2022/08/20 09:57:32;;;;;;;11.63;9.25;;;23.20;55.10;;;;;;5011289;28;20076;-57
2022/08/20 10:00:01;;;;;;;15.07;9.18;;;23.30;54.50;;;;;;5007967;28;20053;-58
2022/08/20 10:02:30;;;;;;;13.73;9.50;;;23.30;55.10;;;;;;5007873;28;20064;-51
2022/08/20 10:04:57;;;;;;;14.18;10.90;;;23.30;54.00;;;;;;5015489;28;20057;-51
2022/08/20 10:07:24;;;;;;;14.70;10.45;;;23.30;54.50;;;;;;5010092;28;20054;-53
2022/08/20 10:09:51;;;;;;;18.13;11.50;;;23.30;54.60;;;;;;5012117;28;20062;-53
2022/08/20 10:12:19;;;;;;;12.95;11.52;;;23.30;55.20;;;;;;5015503;28;20045;-51
2022/08/20 10:14:46;;;;;;;16.48;13.20;;;23.30;54.90;;;;;;5013924;28;20053;-53
2022/08/20 10:17:13;;;;;;;15.18;13.20;;;23.40;54.90;;;;;;5012798;28;20054;-51
2022/08/20 10:19:42;;;;;;;13.35;11.95;;;23.50;54.90;;;;;;5008142;28;20054;-49
2022/08/20 10:22:09;;;;;;;19.17;15.60;;;23.50;54.80;;;;;;5015015;28;20061;-57
2022/08/20 10:24:36;;;;;;;20.77;18.55;;;23.50;54.30;;;;;;5015027;28;20078;-56
2022/08/20 10:27:04;;;;;;;20.52;18.30;;;23.50;54.50;;;;;;5016893;28;20049;-55
2022/08/20 10:29:32;;;;;;;21.95;18.17;;;23.50;54.60;;;;;;5010483;28;20053;-57
2022/08/20 10:32:10;;;;;;;21.52;19.20;;;23.50;54.30;;;;;;5015507;28;20060;-57
2022/08/20 10:34:38;;;;;;;19.52;17.27;;;23.40;53.50;;;;;;5011334;28;20412;-58
2022/08/20 10:37:07;;;;;;;20.05;17.52;;;23.40;54.20;;;;;;5016147;28;20058;-53
2022/08/20 10:39:35;;;;;;;17.95;14.68;;;23.30;53.20;;;;;;5014859;28;20061;-52
2022/08/20 10:42:02;;;;;;;16.65;14.95;;;23.30;53.20;;;;;;5013913;28;20061;-54
2022/08/20 10:44:29;;;;;;;32.00;13.70;;;23.30;53.20;;;;;;5016347;28;20053;-53
2022/08/20 10:46:56;;;;;;;16.55;13.43;;;23.30;53.10;;;;;;5003416;28;20046;-57
2022/08/20 10:49:24;;;;;;;16.13;11.55;;;23.40;52.90;;;;;;5012232;28;20053;-57
2022/08/20 10:51:51;;;;;;;10.82;9.73;;;23.40;52.90;;;;;;5013881;28;20061;-48
2022/08/20 10:54:20;;;;;;;9.50;8.55;;;23.50;53.20;;;;;;5013410;28;20514;-49
2022/08/20 10:56:47;;;;;;;9.40;7.65;;;23.50;53.10;;;;;;5013860;28;20060;-51
2022/08/20 10:59:14;;;;;;;11.02;8.80;;;23.60;53.60;;;;;;5008308;28;20049;-49
2022/08/20 11:01:41;;;;;;;12.07;10.80;;;23.70;52.80;;;;;;5015127;28;20057;-62
2022/08/20 11:04:08;;;;;;;11.75;10.02;;;23.70;51.60;;;;;;5015586;28;20059;-50
2022/08/20 11:06:36;;;;;;;11.80;9.57;;;23.70;51.80;;;;;;5012916;28;20084;-52
2022/08/20 11:09:03;;;;;;;10.90;8.02;;;23.80;51.30;;;;;;5013238;28;20057;-56
2022/08/20 11:11:32;;;;;;;12.23;8.38;;;23.80;51.30;;;;;;5016321;28;20409;-56
2022/08/20 11:13:59;;;;;;;10.00;8.73;;;23.80;51.10;;;;;;5016298;28;20064;-57
2022/08/20 11:16:26;;;;;;;12.02;8.73;;;23.70;50.70;;;;;;5016466;28;20054;-51
2022/08/20 11:18:53;;;;;;;11.50;8.07;;;23.60;51.30;;;;;;5021478;28;20053;-59
2022/08/20 11:21:21;;;;;;;11.23;6.72;;;23.60;50.80;;;;;;5018191;28;20061;-46
2022/08/20 11:23:48;;;;;;;8.18;6.80;;;23.70;51.60;;;;;;5013425;28;20054;-55
2022/08/20 11:26:21;;;;;;;11.65;7.07;;;23.70;51.00;;;;;;5015669;28;20053;-55
2022/08/20 11:28:50;;;;;;;10.53;7.80;;;23.70;50.60;;;;;;5013196;28;20060;-57
2022/08/20 11:31:17;;;;;;;12.15;8.77;;;23.80;50.20;;;;;;5013489;28;20057;-56
2022/08/20 11:33:44;;;;;;;12.75;7.82;;;23.80;50.10;;;;;;5019153;28;20065;-49
2022/08/20 11:36:11;;;;;;;11.18;7.13;;;23.70;50.70;;;;;;5018649;28;20054;-48
2022/08/20 11:38:39;;;;;;;11.60;7.20;;;23.80;50.40;;;;;;5016642;28;20049;-55
2022/08/20 11:41:06;;;;;;;9.75;6.00;;;23.80;50.00;;;;;;5019564;28;20054;-58
2022/08/20 11:43:33;;;;;;;8.20;5.25;;;23.90;50.40;;;;;;5018275;28;20526;-50
2022/08/20 11:46:02;;;;;;;8.15;5.05;;;23.90;50.20;;;;;;5016607;28;20062;-56
2022/08/20 11:48:29;;;;;;;9.13;6.28;;;24.00;49.50;;;;;;5021822;28;20064;-48
2022/08/20 11:50:56;;;;;;;10.07;6.22;;;24.10;49.00;;;;;;5016375;28;20424;-58
2022/08/20 11:53:23;;;;;;;7.78;5.10;;;24.20;49.10;;;;;;5020967;28;20065;-50
2022/08/20 11:55:51;;;;;;;8.13;4.90;;;24.20;49.30;;;;;;5024356;28;20080;-58
2022/08/20 11:58:18;;;;;;;9.75;5.70;;;24.20;47.10;;;;;;5020604;28;20057;-50
2022/08/20 12:00:45;;;;;;;12.80;6.88;;;24.20;47.80;;;;;;5015288;28;20539;-55
2022/08/20 12:03:14;;;;;;;9.50;6.68;;;24.30;48.20;;;;;;5019972;28;20056;-54
2022/08/20 12:05:43;;;;;;;12.88;6.60;;;24.20;48.40;;;;;;5021618;28;20049;-51
2022/08/20 12:08:11;;;;;;;10.85;6.53;;;24.30;48.70;;;;;;5017226;28;20504;-58
2022/08/20 12:10:38;;;;;;;10.23;5.85;;;24.40;48.30;;;;;;5010812;28;20049;-57
2022/08/20 12:13:07;;;;;;;10.52;5.88;;;24.20;48.10;;;;;;5024104;28;20049;-48
2022/08/20 12:15:34;;;;;;;8.48;5.53;;;24.20;48.00;;;;;;5008025;28;20422;-55
2022/08/20 12:18:05;;;;;;;14.13;5.03;;;24.20;47.30;;;;;;4998006;28;20053;-49
2022/08/20 12:20:34;;;;;;;9.05;4.00;;;24.20;47.50;;;;;;5003913;28;20058;-50
2022/08/20 12:23:02;;;;;;;7.68;3.13;;;24.20;47.70;;;;;;5009764;28;20062;-52
2022/08/20 12:25:32;;;;;;;9.80;4.35;;;24.20;48.30;;;;;;5020928;28;20493;-53
2022/08/20 12:27:59;;;;;;;7.10;3.35;;;24.30;47.90;;;;;;5022859;28;20501;-54
2022/08/20 12:30:27;;;;;;;8.93;3.70;;;24.40;47.10;;;;;;5016322;28;20072;-53
2022/08/20 12:32:54;;;;;;;7.28;4.50;;;24.40;46.80;;;;;;5017861;28;20053;-55
2022/08/20 12:35:21;;;;;;;7.10;4.03;;;24.50;46.40;;;;;;5017119;28;20045;-53
2022/08/20 12:37:50;;;;;;;10.52;2.92;;;24.50;46.70;;;;;;5018851;28;20390;-48
2022/08/20 12:40:19;;;;;;;6.15;2.70;;;24.70;46.40;;;;;;5007080;28;20441;-50
2022/08/20 12:42:47;;;;;;;8.05;3.75;;;24.70;45.70;;;;;;5012080;28;20424;-59
2022/08/20 12:45:15;;;;;;;8.68;3.90;;;24.80;46.20;;;;;;5003371;28;20054;-49
2022/08/20 12:47:44;;;;;;;7.07;3.40;;;24.90;46.00;;;;;;4996542;28;20421;-53
2022/08/20 12:50:15;;;;;;;10.77;3.20;;;24.90;46.30;;;;;;4986504;28;20065;-58
2022/08/20 12:52:43;;;;;;;4.22;2.60;;;25.00;45.10;;;;;;4988176;28;20060;-52
2022/08/20 12:55:13;;;;;;;6.00;3.10;;;25.10;45.40;;;;;;4989721;28;20514;-55
2022/08/20 12:57:42;;;;;;;6.32;2.60;;;25.10;45.50;;;;;;4995910;28;20060;-48